Time;durP1;ratioP1;P1;durP2;ratioP2;P2;SDS_P1;SDS_P2;PMS_P1;PMS_P2;Temp;Humidity;BMP_temperature;BMP_pressure;BME280_temperature;BME280_humidity;BME280_pressure;Samples;Min_cycle;Max_cycle;Signal;HPM_P1;HPM_P2
2021/12/21 00:00:16;;;;;;;10.35;3.65;;;8.70;70.10;;;;;;5047998;28;20037;-72
2021/12/21 00:02:44;;;;;;;7.20;3.85;;;8.70;70.10;;;;;;5048154;28;20029;-72
2021/12/21 00:05:16;;;;;;;10.95;3.92;;;8.70;70.10;;;;;;5047912;28;20040;-72
2021/12/21 00:07:43;;;;;;;9.20;4.38;;;8.70;70.10;;;;;;5048495;28;20425;-71
2021/12/21 00:10:11;;;;;;;10.75;3.50;;;8.70;70.00;;;;;;5046857;28;20303;-71
2021/12/21 00:12:47;;;;;;;12.82;4.38;;;8.70;70.00;;;;;;5047629;28;20037;-71
2021/12/21 00:15:28;;;;;;;10.88;3.83;;;8.70;70.00;;;;;;5047975;28;20064;-71
2021/12/21 00:18:01;;;;;;;9.10;3.70;;;8.60;69.80;;;;;;5029894;28;20086;-71
2021/12/21 00:25:45;;;;;;;8.60;3.67;;;8.60;69.80;;;;;;5062888;28;20060;-71
2021/12/21 00:28:10;;;;;;;15.20;3.97;;;8.60;69.80;;;;;;5065299;28;20403;-72
2021/12/21 00:30:36;;;;;;;8.38;3.42;;;8.60;69.80;;;;;;5047630;28;20039;-72
2021/12/21 00:33:02;;;;;;;16.55;4.05;;;8.60;69.80;;;;;;5046908;28;20053;-71
2021/12/21 00:35:28;;;;;;;13.25;4.05;;;8.60;70.30;;;;;;5047689;28;20060;-71
2021/12/21 00:37:56;;;;;;;9.98;3.90;;;8.60;69.80;;;;;;5029457;28;20033;-71
2021/12/21 00:40:22;;;;;;;11.38;4.30;;;8.60;69.80;;;;;;5046906;28;20075;-71
2021/12/21 00:42:48;;;;;;;11.52;3.28;;;8.60;69.80;;;;;;5047304;28;20439;-71
2021/12/21 00:45:14;;;;;;;10.85;3.85;;;8.50;69.70;;;;;;5047150;28;20128;-72
2021/12/21 00:47:46;;;;;;;8.93;4.15;;;8.50;69.70;;;;;;5029522;28;20049;-70
2021/12/21 00:50:16;;;;;;;7.85;2.92;;;8.50;69.70;;;;;;5029189;28;20475;-72
2021/12/21 00:52:45;;;;;;;7.00;3.10;;;8.50;69.60;;;;;;5029170;28;20064;-72
2021/12/21 00:55:11;;;;;;;9.45;3.55;;;8.50;69.60;;;;;;5047006;28;20033;-73
2021/12/21 00:57:37;;;;;;;8.32;3.55;;;8.50;69.60;;;;;;5047198;28;20500;-72
2021/12/21 01:00:05;;;;;;;8.27;3.33;;;8.50;69.60;;;;;;5047069;28;20033;-72
2021/12/21 01:02:32;;;;;;;6.82;2.90;;;8.60;69.80;;;;;;5029039;28;20110;-72
2021/12/21 01:04:58;;;;;;;8.65;3.65;;;8.50;69.60;;;;;;5046457;28;20035;-71
2021/12/21 01:07:35;;;;;;;7.50;3.30;;;8.50;69.60;;;;;;5045694;28;20063;-72
2021/12/21 01:15:51;;;;;;;8.38;3.30;;;8.50;69.70;;;;;;5046937;28;20041;-72
2021/12/21 01:18:26;;;;;;;6.47;3.17;;;8.50;69.60;;;;;;5046240;28;20033;-72
2021/12/21 01:21:16;;;;;;;9.77;2.83;;;8.50;69.60;;;;;;5047178;28;20032;-71
2021/12/21 01:32:33;;;;;;;9.25;3.63;;;8.40;69.40;;;;;;5045549;28;20102;-72
2021/12/21 01:35:07;;;;;;;9.18;2.95;;;8.40;69.40;;;;;;5036844;28;20036;-72
2021/12/21 01:37:54;;;;;;;9.68;3.28;;;8.40;69.40;;;;;;5045915;28;20072;-72
2021/12/21 01:50:54;;;;;;;9.32;4.40;;;8.40;69.50;;;;;;5046085;28;20289;-71
2021/12/21 01:53:20;;;;;;;7.70;3.40;;;8.40;69.50;;;;;;5046087;28;20047;-72
2021/12/21 01:55:47;;;;;;;7.47;2.80;;;8.40;69.50;;;;;;5045575;28;20032;-71
2021/12/21 01:58:14;;;;;;;9.00;3.00;;;8.50;69.70;;;;;;5046007;28;20484;-72
2021/12/21 02:00:40;;;;;;;7.35;3.35;;;8.40;69.50;;;;;;5045937;28;20037;-72
2021/12/21 02:03:07;;;;;;;10.32;4.57;;;8.40;69.50;;;;;;5045697;28;20082;-71
2021/12/21 02:05:33;;;;;;;7.20;3.00;;;8.40;69.50;;;;;;5045046;28;20040;-72
2021/12/21 02:07:59;;;;;;;7.55;2.75;;;8.40;69.50;;;;;;5028029;28;20044;-72
2021/12/21 02:10:26;;;;;;;9.55;3.30;;;8.40;69.50;;;;;;5027895;28;20032;-72
2021/12/21 02:12:52;;;;;;;9.18;3.33;;;8.40;69.50;;;;;;5045655;28;20059;-72
2021/12/21 02:15:18;;;;;;;9.93;3.78;;;8.40;69.40;;;;;;5045660;28;20037;-72
2021/12/21 02:23:07;;;;;;;11.95;3.22;;;8.40;69.50;;;;;;5045461;28;20029;-71
2021/12/21 02:30:27;;;;;;;8.63;2.88;;;8.30;69.30;;;;;;5062450;28;20036;-71
2021/12/21 02:32:54;;;;;;;12.57;4.53;;;8.30;69.30;;;;;;5072878;28;20095;-71
2021/12/21 02:35:20;;;;;;;7.30;3.35;;;8.30;69.40;;;;;;5081798;28;20387;-72
2021/12/21 02:37:46;;;;;;;8.65;3.22;;;8.30;69.40;;;;;;5067266;28;20037;-72
2021/12/21 02:40:12;;;;;;;9.50;3.90;;;8.30;69.40;;;;;;5047393;28;20044;-72
2021/12/21 02:42:38;;;;;;;10.55;3.75;;;8.30;69.40;;;;;;5047108;28;20036;-71
2021/12/21 02:45:05;;;;;;;5.93;2.63;;;8.30;69.40;;;;;;5028828;28;20396;-72
2021/12/21 02:47:32;;;;;;;9.05;2.75;;;8.30;69.50;;;;;;5067773;28;20108;-71
2021/12/21 02:49:59;;;;;;;8.32;2.65;;;8.20;69.30;;;;;;5069553;28;20391;-72
2021/12/21 02:52:25;;;;;;;7.60;3.17;;;8.20;69.30;;;;;;5070465;28;20040;-71
2021/12/21 02:54:51;;;;;;;8.07;2.97;;;8.20;69.30;;;;;;5070580;28;20028;-71
2021/12/21 02:57:17;;;;;;;9.60;3.58;;;8.30;69.50;;;;;;5070218;28;20036;-72
2021/12/21 02:59:43;;;;;;;8.07;3.08;;;8.20;69.30;;;;;;5069255;28;20491;-71
2021/12/21 03:02:09;;;;;;;7.97;3.10;;;8.30;69.50;;;;;;5068985;28;20029;-72
2021/12/21 03:04:35;;;;;;;9.90;4.25;;;8.20;69.30;;;;;;5069109;28;20024;-71
2021/12/21 03:09:41;;;;;;;10.15;3.05;;;8.20;69.30;;;;;;5068239;28;20048;-72
2021/12/21 03:12:29;;;;;;;12.27;4.05;;;8.20;69.30;;;;;;5068620;28;20041;-71
2021/12/21 03:14:55;;;;;;;8.52;3.63;;;8.20;69.30;;;;;;5068077;28;20021;-72
2021/12/21 03:17:23;;;;;;;9.98;3.65;;;8.20;69.30;;;;;;5072678;28;20036;-71
2021/12/21 03:19:49;;;;;;;10.20;3.45;;;8.20;69.30;;;;;;5073796;28;20482;-72
2021/12/21 03:22:15;;;;;;;10.23;3.00;;;8.20;69.30;;;;;;5073713;28;20017;-72
2021/12/21 03:24:43;;;;;;;11.57;3.35;;;8.20;69.30;;;;;;5072921;28;20088;-71
2021/12/21 03:27:10;;;;;;;7.07;3.20;;;8.20;69.30;;;;;;5073642;28;20033;-72
2021/12/21 03:29:36;;;;;;;7.30;2.70;;;8.20;69.30;;;;;;5073717;28;20028;-72
2021/12/21 03:32:03;;;;;;;9.30;3.28;;;8.20;69.30;;;;;;5074135;28;20036;-72
2021/12/21 03:34:29;;;;;;;10.52;4.07;;;8.20;69.40;;;;;;5072595;28;20570;-72
2021/12/21 03:36:56;;;;;;;9.15;3.92;;;8.10;69.20;;;;;;5073567;28;20068;-71
2021/12/21 03:39:22;;;;;;;7.63;3.78;;;8.20;69.40;;;;;;5073589;28;20078;-72
2021/12/21 03:41:56;;;;;;;10.20;4.38;;;8.20;70.00;;;;;;5073386;28;20387;-72
2021/12/21 03:44:23;;;;;;;7.88;2.92;;;8.10;69.20;;;;;;5056974;28;20115;-72
2021/12/21 03:46:53;;;;;;;6.18;2.85;;;8.10;69.20;;;;;;5073219;28;20105;-72
2021/12/21 03:52:14;;;;;;;8.25;3.17;;;8.10;69.30;;;;;;5073269;28;20077;-72
2021/12/21 03:54:44;;;;;;;11.52;3.40;;;8.10;69.30;;;;;;5073746;28;20041;-72
2021/12/21 03:57:11;;;;;;;10.57;3.53;;;8.10;69.20;;;;;;5072854;28;20060;-71
2021/12/21 03:59:37;;;;;;;9.00;3.22;;;8.10;69.30;;;;;;5055709;28;20386;-72
2021/12/21 04:02:04;;;;;;;9.63;3.15;;;8.10;69.20;;;;;;5073361;28;20086;-72
2021/12/21 04:04:31;;;;;;;10.48;3.17;;;8.10;69.30;;;;;;5073203;28;20042;-72
2021/12/21 04:06:57;;;;;;;12.60;4.30;;;8.10;69.20;;;;;;5073536;28;20038;-72
2021/12/21 04:09:23;;;;;;;7.63;4.18;;;8.10;69.30;;;;;;5072928;28;20032;-72
2021/12/21 04:11:49;;;;;;;11.68;3.67;;;8.10;69.20;;;;;;5071296;28;20037;-72
2021/12/21 04:14:17;;;;;;;8.27;3.72;;;8.10;69.20;;;;;;5072942;28;20063;-72
2021/12/21 04:16:43;;;;;;;16.05;3.90;;;8.10;69.40;;;;;;5072809;28;20032;-72
2021/12/21 04:19:10;;;;;;;9.68;3.20;;;8.10;69.30;;;;;;5054980;28;20063;-72
2021/12/21 04:21:36;;;;;;;8.77;3.53;;;8.10;69.20;;;;;;5073115;28;20036;-72
2021/12/21 04:24:02;;;;;;;7.70;3.45;;;8.10;69.30;;;;;;5072823;28;20035;-72
2021/12/21 04:26:28;;;;;;;6.82;3.50;;;8.10;69.30;;;;;;5072688;28;20039;-71
2021/12/21 04:28:54;;;;;;;9.63;3.58;;;8.10;69.30;;;;;;5071923;28;20033;-72
2021/12/21 04:31:20;;;;;;;10.48;3.92;;;8.00;69.10;;;;;;5072376;28;20458;-71
2021/12/21 04:33:47;;;;;;;8.05;3.10;;;8.00;69.10;;;;;;5072705;28;20040;-72
2021/12/21 04:36:13;;;;;;;7.15;3.35;;;8.00;69.10;;;;;;5049891;28;20068;-71
2021/12/21 04:38:43;;;;;;;7.75;3.70;;;8.00;69.10;;;;;;5070595;28;20566;-72
2021/12/21 04:41:15;;;;;;;9.30;4.05;;;8.00;69.10;;;;;;5071659;28;20032;-71
2021/12/21 04:43:42;;;;;;;7.60;3.67;;;8.00;69.20;;;;;;5072575;28;20033;-72
2021/12/21 04:46:09;;;;;;;8.50;3.67;;;8.00;69.20;;;;;;5072424;28;20075;-71
2021/12/21 04:48:35;;;;;;;9.40;3.45;;;8.00;69.20;;;;;;5072458;28;20464;-72
2021/12/21 04:51:02;;;;;;;12.52;3.97;;;8.00;69.20;;;;;;5072226;28;20387;-72
2021/12/21 04:53:28;;;;;;;11.05;3.97;;;8.00;69.20;;;;;;5071710;28;20044;-72
2021/12/21 04:55:55;;;;;;;11.07;3.88;;;8.00;69.20;;;;;;5071988;28;20021;-72
2021/12/21 04:58:21;;;;;;;5.65;2.97;;;8.00;69.30;;;;;;5072126;28;20036;-72
2021/12/21 05:00:49;;;;;;;8.18;3.33;;;8.00;69.30;;;;;;5071905;28;20115;-71
2021/12/21 05:03:15;;;;;;;8.60;3.05;;;8.00;69.30;;;;;;5072183;28;20028;-72
2021/12/21 05:05:41;;;;;;;10.30;3.88;;;8.00;69.30;;;;;;5072177;28;20107;-72
2021/12/21 05:08:10;;;;;;;11.02;3.55;;;8.00;69.30;;;;;;5072268;28;20476;-72
2021/12/21 05:10:45;;;;;;;6.50;3.40;;;8.00;69.30;;;;;;5053349;28;20119;-72
2021/12/21 05:13:12;;;;;;;9.52;3.50;;;7.90;69.10;;;;;;5071659;28;20048;-72
2021/12/21 05:15:38;;;;;;;7.38;3.47;;;8.00;69.30;;;;;;5071800;28;20024;-72
2021/12/21 05:18:04;;;;;;;9.45;3.60;;;7.90;69.10;;;;;;5071583;28;20033;-72
2021/12/21 05:20:30;;;;;;;10.25;3.58;;;7.90;69.10;;;;;;5071632;28;20029;-71
2021/12/21 05:22:56;;;;;;;10.07;3.70;;;7.90;69.10;;;;;;5072072;28;20435;-72
2021/12/21 05:25:22;;;;;;;9.88;4.20;;;7.90;69.20;;;;;;5071442;28;20028;-71
2021/12/21 05:27:48;;;;;;;8.52;4.55;;;7.90;69.20;;;;;;5053387;28;20048;-72
2021/12/21 05:30:14;;;;;;;8.23;4.85;;;7.80;69.00;;;;;;5071810;28;20025;-72
2021/12/21 05:32:41;;;;;;;9.07;3.30;;;7.80;69.10;;;;;;5071695;28;20037;-72
2021/12/21 05:35:08;;;;;;;5.88;3.35;;;7.80;69.10;;;;;;5071666;28;20040;-72
2021/12/21 05:37:37;;;;;;;7.80;3.40;;;7.80;69.70;;;;;;5071278;28;20040;-72
2021/12/21 05:40:15;;;;;;;8.20;3.88;;;7.80;69.20;;;;;;5071096;28;20037;-72
2021/12/21 05:42:43;;;;;;;8.05;3.58;;;7.70;69.00;;;;;;5069877;28;20123;-72
2021/12/21 05:45:11;;;;;;;8.85;3.47;;;7.70;69.10;;;;;;5071537;28;20028;-71
2021/12/21 05:47:37;;;;;;;6.00;2.85;;;7.70;69.10;;;;;;5070781;28;20041;-72
2021/12/21 05:50:08;;;;;;;7.28;3.90;;;7.70;69.10;;;;;;5069997;28;20380;-71
2021/12/21 05:52:35;;;;;;;11.00;4.20;;;7.70;69.10;;;;;;5069064;28;20127;-72
2021/12/21 05:55:01;;;;;;;9.98;4.10;;;7.70;69.10;;;;;;5067103;28;20507;-72
2021/12/21 05:57:27;;;;;;;7.85;3.45;;;7.70;69.20;;;;;;5067144;28;20400;-72
2021/12/21 05:59:53;;;;;;;6.70;3.58;;;7.70;69.20;;;;;;5047520;28;20041;-72
2021/12/21 06:02:19;;;;;;;7.95;3.65;;;7.70;69.20;;;;;;5047963;28;20052;-72
2021/12/21 06:04:45;;;;;;;8.45;3.75;;;7.70;69.20;;;;;;5047200;28;20032;-71
2021/12/21 06:07:11;;;;;;;8.02;3.85;;;7.70;69.20;;;;;;5065740;28;20108;-71
2021/12/21 06:09:37;;;;;;;6.85;3.47;;;7.70;69.20;;;;;;5065164;28;20476;-71
2021/12/21 06:12:12;;;;;;;8.52;3.60;;;7.70;69.20;;;;;;5065403;28;20046;-71
2021/12/21 06:27:44;;;;;;;8.52;4.22;;;7.60;69.10;;;;;;5065714;28;20391;-72
2021/12/21 06:30:11;;;;;;;7.85;3.78;;;7.60;69.10;;;;;;5065691;28;20032;-72
2021/12/21 06:32:37;;;;;;;14.30;4.10;;;7.60;69.10;;;;;;5065878;28;20506;-72
2021/12/21 06:35:04;;;;;;;8.25;3.67;;;7.50;69.00;;;;;;5068416;28;20008;-72
2021/12/21 06:37:30;;;;;;;11.55;4.80;;;7.60;69.20;;;;;;5065513;28;20025;-72
2021/12/21 06:39:57;;;;;;;10.32;4.45;;;7.50;69.00;;;;;;5065369;28;20032;-72
2021/12/21 06:42:23;;;;;;;9.73;4.35;;;7.50;69.10;;;;;;5065758;28;20073;-72
2021/12/21 06:44:55;;;;;;;9.23;3.80;;;7.50;69.10;;;;;;5057041;28;20069;-72
2021/12/21 06:52:51;;;;;;;11.23;4.95;;;7.50;69.50;;;;;;5068422;28;20060;-71
2021/12/21 06:55:17;;;;;;;8.38;4.10;;;7.50;69.70;;;;;;5069222;28;20074;-72
2021/12/21 06:57:43;;;;;;;13.60;4.28;;;7.60;69.90;;;;;;5069280;28;20499;-71
2021/12/21 07:00:15;;;;;;;10.90;4.90;;;7.60;69.90;;;;;;5069130;28;20076;-71
2021/12/21 07:02:41;;;;;;;9.57;4.80;;;7.60;69.90;;;;;;5051135;28;20033;-71
2021/12/21 07:05:08;;;;;;;10.57;4.57;;;7.60;69.90;;;;;;5069091;28;20285;-71
2021/12/21 07:07:35;;;;;;;11.45;6.30;;;7.60;69.90;;;;;;5080471;28;20126;-71
2021/12/21 07:10:05;;;;;;;7.85;4.30;;;7.60;69.90;;;;;;5068432;28;20028;-71
2021/12/21 07:20:14;;;;;;;8.85;5.38;;;7.60;69.90;;;;;;5069147;28;20040;-72
2021/12/21 07:22:40;;;;;;;10.30;5.90;;;7.60;69.90;;;;;;5067586;28;20028;-72
2021/12/21 07:25:06;;;;;;;13.57;5.07;;;7.60;69.90;;;;;;5048520;28;20413;-71
2021/12/21 07:27:32;;;;;;;10.13;4.10;;;7.50;69.80;;;;;;5048136;28;20036;-71
2021/12/21 07:29:58;;;;;;;11.60;5.25;;;7.50;69.80;;;;;;5049143;28;20037;-71
2021/12/21 07:32:24;;;;;;;9.43;4.43;;;7.50;69.80;;;;;;5048709;28;20044;-72
2021/12/21 07:34:50;;;;;;;11.13;4.50;;;7.50;69.80;;;;;;5048547;28;20036;-71
2021/12/21 07:37:16;;;;;;;10.40;4.90;;;7.50;69.80;;;;;;5048719;28;20047;-71
2021/12/21 07:39:42;;;;;;;9.68;5.10;;;7.50;69.80;;;;;;5048521;28;20029;-71
2021/12/21 07:42:08;;;;;;;10.55;4.25;;;7.50;69.80;;;;;;5048842;28;20037;-71
2021/12/21 07:44:34;;;;;;;8.02;4.38;;;7.50;69.80;;;;;;5063901;28;20381;-71
2021/12/21 07:47:00;;;;;;;8.98;4.32;;;7.40;69.60;;;;;;5069295;28;20090;-71
2021/12/21 07:49:26;;;;;;;9.75;4.22;;;7.50;69.80;;;;;;5051103;28;20036;-70
2021/12/21 07:51:53;;;;;;;9.18;3.92;;;7.50;69.70;;;;;;5048160;28;20044;-70
2021/12/21 07:54:19;;;;;;;8.45;5.43;;;7.50;69.70;;;;;;5048364;28;20025;-71
2021/12/21 07:56:45;;;;;;;12.13;5.90;;;7.50;69.70;;;;;;5047868;28;20035;-71
2021/12/21 07:59:11;;;;;;;9.73;4.57;;;7.50;69.70;;;;;;5048092;28;20033;-71
2021/12/21 08:01:40;;;;;;;8.02;4.72;;;7.50;69.70;;;;;;5047538;28;20116;-70
2021/12/21 08:04:07;;;;;;;9.10;4.60;;;7.50;69.70;;;;;;5046566;28;20029;-71
2021/12/21 08:06:37;;;;;;;12.45;5.25;;;7.50;69.60;;;;;;5047814;28;20040;-71
2021/12/21 08:09:04;;;;;;;10.55;5.20;;;7.50;69.60;;;;;;5048033;28;20041;-71
2021/12/21 08:14:00;;;;;;;11.43;6.22;;;7.50;69.60;;;;;;5047841;28;20484;-71
2021/12/21 08:16:27;;;;;;;9.13;4.35;;;7.40;69.40;;;;;;5048038;28;20040;-71
2021/12/21 08:18:53;;;;;;;9.90;4.22;;;7.50;69.50;;;;;;5047772;28;20334;-71
2021/12/21 08:21:19;;;;;;;11.90;6.28;;;7.40;69.30;;;;;;5048100;28;20574;-71
2021/12/21 08:23:46;;;;;;;14.48;5.32;;;7.40;69.30;;;;;;5038102;28;20036;-71
2021/12/21 08:26:12;;;;;;;9.77;4.80;;;7.40;69.30;;;;;;5067911;28;20103;-70
2021/12/21 08:28:38;;;;;;;11.02;5.10;;;7.40;69.40;;;;;;5067611;28;20296;-71
2021/12/21 08:31:04;;;;;;;14.60;5.00;;;7.40;69.30;;;;;;5067641;28;20569;-70
2021/12/21 08:33:30;;;;;;;14.10;5.97;;;7.40;69.30;;;;;;5067269;28;20357;-71
2021/12/21 08:35:56;;;;;;;7.60;4.80;;;7.40;69.30;;;;;;5067449;28;20036;-70
2021/12/21 08:38:22;;;;;;;11.02;5.00;;;7.40;69.30;;;;;;5059297;28;20521;-70
2021/12/21 08:40:50;;;;;;;9.82;4.70;;;7.40;69.20;;;;;;5046952;28;20113;-70
2021/12/21 08:43:24;;;;;;;11.35;6.07;;;7.40;69.20;;;;;;5046911;28;20115;-71
2021/12/21 08:45:52;;;;;;;8.93;5.30;;;7.40;69.20;;;;;;5047513;28;20041;-70
2021/12/21 08:48:19;;;;;;;14.27;5.32;;;7.40;69.20;;;;;;5046900;28;20029;-70
2021/12/21 08:50:47;;;;;;;10.32;5.28;;;7.40;69.10;;;;;;5047199;28;20128;-70
2021/12/21 08:53:14;;;;;;;12.63;6.47;;;7.50;69.30;;;;;;5029558;28;20040;-70
2021/12/21 08:55:41;;;;;;;11.90;5.35;;;7.50;69.20;;;;;;5047490;28;20040;-70
2021/12/21 08:58:08;;;;;;;13.15;5.43;;;7.50;69.20;;;;;;5045302;28;20040;-70
2021/12/21 09:00:33;;;;;;;9.55;5.05;;;7.50;69.20;;;;;;5047182;28;20186;-71
2021/12/21 09:02:59;;;;;;;11.40;5.43;;;7.50;69.20;;;;;;5046025;28;20524;-70
2021/12/21 09:05:29;;;;;;;10.88;5.32;;;7.60;69.20;;;;;;5046567;28;20021;-70
2021/12/21 09:07:55;;;;;;;11.00;5.45;;;7.60;69.20;;;;;;5046056;28;20098;-71
2021/12/21 09:10:23;;;;;;;9.45;4.75;;;7.60;69.10;;;;;;5046298;28;20033;-70
2021/12/21 09:12:50;;;;;;;10.88;5.25;;;7.60;69.00;;;;;;5046624;28;20526;-70
2021/12/21 09:15:17;;;;;;;12.02;5.43;;;7.60;69.00;;;;;;5046307;28;20439;-70
2021/12/21 09:17:47;;;;;;;11.07;5.45;;;7.70;69.10;;;;;;5046595;28;20037;-71
2021/12/21 09:20:20;;;;;;;13.25;5.82;;;7.70;69.00;;;;;;5046806;28;20029;-70
2021/12/21 09:22:47;;;;;;;13.75;6.13;;;7.70;68.90;;;;;;5046771;28;20059;-71
2021/12/21 09:25:14;;;;;;;9.35;6.03;;;7.80;69.00;;;;;;5045819;28;20032;-70
2021/12/21 09:27:41;;;;;;;9.80;5.70;;;7.80;68.90;;;;;;5029880;28;20504;-71
2021/12/21 09:30:10;;;;;;;13.00;6.15;;;7.80;68.90;;;;;;5065187;28;20017;-71
2021/12/21 09:32:36;;;;;;;8.35;5.63;;;7.90;68.90;;;;;;5046056;28;20044;-70
2021/12/21 09:35:03;;;;;;;9.23;5.45;;;7.90;68.90;;;;;;5048345;28;20028;-70
2021/12/21 09:37:29;;;;;;;9.40;5.90;;;8.00;69.00;;;;;;5046727;28;20047;-71
2021/12/21 09:39:56;;;;;;;9.15;6.22;;;8.00;68.90;;;;;;5045944;28;20081;-70
2021/12/21 09:42:26;;;;;;;8.75;5.97;;;8.00;68.80;;;;;;5046543;28;20297;-71
2021/12/21 09:44:54;;;;;;;9.98;6.03;;;8.00;68.70;;;;;;5046016;28;20080;-71
2021/12/21 09:47:20;;;;;;;13.23;6.45;;;8.10;68.80;;;;;;5046590;28;20985;-71
2021/12/21 09:49:47;;;;;;;12.15;7.65;;;8.10;68.70;;;;;;5045614;28;20041;-71
2021/12/21 09:52:18;;;;;;;9.82;7.00;;;8.10;68.70;;;;;;5052899;28;20098;-72
2021/12/21 09:54:46;;;;;;;10.45;6.35;;;8.20;68.70;;;;;;5063077;28;20131;-71
2021/12/21 09:57:16;;;;;;;13.38;7.95;;;8.20;68.60;;;;;;5064632;28;20032;-71
2021/12/21 09:59:44;;;;;;;10.00;6.97;;;8.30;68.70;;;;;;5047210;28;20032;-71
2021/12/21 10:02:11;;;;;;;12.18;7.22;;;8.30;68.70;;;;;;5045742;28;20043;-71
2021/12/21 10:04:46;;;;;;;10.90;7.07;;;8.40;68.70;;;;;;5045748;28;20029;-71
2021/12/21 10:07:14;;;;;;;14.45;8.07;;;8.40;68.60;;;;;;5045472;28;20618;-71
2021/12/21 10:09:45;;;;;;;16.63;7.95;;;8.40;68.50;;;;;;5045558;28;20198;-72
2021/12/21 10:12:28;;;;;;;12.45;9.15;;;8.50;68.50;;;;;;5045583;28;20492;-72
2021/12/21 10:15:15;;;;;;;18.77;9.52;;;8.60;68.70;;;;;;5061617;28;20032;-71
2021/12/21 10:17:54;;;;;;;11.60;7.72;;;8.70;68.80;;;;;;5065629;28;20035;-71
2021/12/21 10:20:37;;;;;;;16.85;8.93;;;8.80;68.70;;;;;;5065677;28;20032;-71
2021/12/21 10:23:14;;;;;;;13.02;7.70;;;8.90;68.70;;;;;;5048347;28;20627;-71
2021/12/21 10:26:01;;;;;;;16.88;8.88;;;8.90;68.50;;;;;;5065819;28;20032;-71
2021/12/21 10:28:31;;;;;;;12.05;8.52;;;9.00;68.50;;;;;;5064988;28;20028;-71
2021/12/21 10:31:00;;;;;;;17.35;8.70;;;9.10;68.50;;;;;;5065583;28;20470;-71
2021/12/21 10:33:28;;;;;;;18.52;10.40;;;9.10;68.40;;;;;;5065397;28;20434;-71
2021/12/21 10:35:56;;;;;;;15.82;9.25;;;9.20;68.40;;;;;;5065724;28;20070;-71
2021/12/21 10:38:37;;;;;;;14.30;8.60;;;9.20;68.40;;;;;;5065086;28;20081;-71
2021/12/21 10:41:15;;;;;;;16.92;8.90;;;9.20;68.20;;;;;;5047499;28;20353;-71
2021/12/21 10:43:42;;;;;;;17.92;9.85;;;9.30;68.20;;;;;;5065512;28;20034;-72
2021/12/21 10:46:09;;;;;;;19.10;9.95;;;9.40;68.30;;;;;;5065601;28;20185;-72
2021/12/21 10:48:37;;;;;;;15.43;9.38;;;9.40;68.20;;;;;;5065476;28;20377;-72
2021/12/21 10:51:08;;;;;;;13.10;9.73;;;9.40;68.00;;;;;;5065817;28;20085;-72
2021/12/21 10:53:37;;;;;;;15.95;10.13;;;9.50;68.10;;;;;;5059262;28;20564;-71
2021/12/21 10:56:09;;;;;;;15.40;10.30;;;9.60;68.20;;;;;;5028049;28;20502;-71
2021/12/21 10:58:38;;;;;;;14.40;9.45;;;9.60;68.00;;;;;;5045164;28;20300;-71
2021/12/21 11:01:09;;;;;;;15.82;9.80;;;9.70;68.00;;;;;;5045534;28;20052;-71
2021/12/21 11:03:44;;;;;;;15.18;9.23;;;9.70;67.90;;;;;;5045055;28;20061;-71
2021/12/21 11:06:16;;;;;;;18.67;10.80;;;9.80;67.90;;;;;;5045313;28;20085;-71
2021/12/21 11:08:44;;;;;;;13.02;8.95;;;9.90;67.90;;;;;;5045432;28;20032;-71
2021/12/21 11:11:29;;;;;;;15.50;9.25;;;9.90;67.80;;;;;;5045136;28;20049;-71
2021/12/21 11:14:17;;;;;;;14.60;9.57;;;10.00;68.30;;;;;;5045494;28;20231;-71
2021/12/21 11:16:46;;;;;;;14.68;9.05;;;10.10;67.70;;;;;;5045198;28;20043;-71
2021/12/21 11:19:15;;;;;;;11.07;8.32;;;10.10;67.60;;;;;;5058372;28;20396;-72
2021/12/21 11:21:42;;;;;;;10.40;9.38;;;10.10;67.50;;;;;;5065484;28;20042;-70
2021/12/21 11:24:11;;;;;;;12.50;8.85;;;10.20;67.60;;;;;;5054029;28;20115;-71
2021/12/21 11:26:39;;;;;;;11.73;8.75;;;10.20;67.40;;;;;;5045005;28;20540;-71
2021/12/21 11:29:12;;;;;;;12.88;8.45;;;10.30;67.50;;;;;;5044196;28;20484;-71
2021/12/21 11:31:43;;;;;;;14.60;9.50;;;10.30;67.40;;;;;;5045003;28;20029;-71
2021/12/21 11:34:15;;;;;;;10.82;8.35;;;10.30;67.30;;;;;;5045347;28;20029;-71
2021/12/21 11:39:40;;;;;;;10.32;8.85;;;10.40;67.30;;;;;;5048532;28;20354;-71
2021/12/21 11:42:08;;;;;;;13.32;8.75;;;10.40;67.30;;;;;;5030818;28;20029;-72
2021/12/21 11:45:07;;;;;;;13.10;8.85;;;10.40;67.20;;;;;;5048144;28;20175;-71
2021/12/21 11:48:11;;;;;;;12.07;8.77;;;10.40;67.60;;;;;;5048219;28;20129;-71
2021/12/21 11:50:41;;;;;;;10.40;8.88;;;10.40;67.00;;;;;;5030161;28;20037;-71
2021/12/21 11:53:09;;;;;;;7.47;6.68;;;10.50;67.30;;;;;;5048169;28;20048;-72
2021/12/21 11:55:38;;;;;;;13.20;7.10;;;10.50;67.30;;;;;;5030803;28;20029;-72
2021/12/21 11:58:21;;;;;;;12.00;7.60;;;10.50;67.70;;;;;;5046344;28;20051;-72
2021/12/21 12:01:25;;;;;;;11.27;7.07;;;10.70;68.00;;;;;;5063590;28;20028;-71
2021/12/21 12:04:03;;;;;;;9.68;6.82;;;10.70;67.80;;;;;;4982277;28;20527;-71
2021/12/21 12:06:46;;;;;;;9.23;7.25;;;10.80;67.80;;;;;;5041337;28;20045;-71
2021/12/21 12:09:22;;;;;;;9.95;7.10;;;10.80;67.60;;;;;;5046901;28;20589;-71
2021/12/21 12:11:48;;;;;;;11.82;8.30;;;10.80;67.50;;;;;;5047696;28;20384;-72
2021/12/21 12:14:19;;;;;;;9.65;7.32;;;10.90;67.60;;;;;;5039237;28;20036;-71
2021/12/21 12:16:52;;;;;;;11.02;8.02;;;10.90;67.60;;;;;;5067117;28;20032;-71
2021/12/21 12:19:21;;;;;;;13.10;9.35;;;10.90;67.50;;;;;;5066749;28;20532;-71
2021/12/21 12:22:02;;;;;;;11.40;8.93;;;10.90;67.40;;;;;;5049934;28;20039;-71
2021/12/21 12:24:40;;;;;;;11.23;7.88;;;11.00;67.50;;;;;;5049763;28;20123;-71
2021/12/21 12:27:20;;;;;;;9.35;7.82;;;11.00;67.40;;;;;;5068211;28;20059;-71
2021/12/21 12:30:10;;;;;;;10.43;8.70;;;11.00;67.30;;;;;;5067182;28;20024;-71
2021/12/21 12:32:40;;;;;;;12.02;8.43;;;11.00;67.20;;;;;;5067596;28;20071;-71
2021/12/21 12:35:13;;;;;;;10.52;8.57;;;11.00;67.20;;;;;;5049664;28;20037;-71
2021/12/21 12:38:05;;;;;;;11.93;9.07;;;11.00;67.20;;;;;;5047442;28;20471;-71
2021/12/21 12:40:39;;;;;;;12.18;8.70;;;11.00;67.00;;;;;;5047503;28;20032;-71
2021/12/21 12:43:08;;;;;;;11.65;9.52;;;11.00;67.00;;;;;;5046522;28;20420;-71
2021/12/21 12:45:37;;;;;;;12.00;9.02;;;11.00;67.00;;;;;;5029598;28;20044;-71
2021/12/21 12:48:15;;;;;;;12.40;10.02;;;11.00;66.90;;;;;;5046805;28;20496;-71
2021/12/21 12:50:42;;;;;;;15.00;10.73;;;11.10;67.00;;;;;;5045019;28;20461;-71
2021/12/21 12:53:08;;;;;;;12.90;8.73;;;11.10;66.90;;;;;;5053235;28;20492;-70
2021/12/21 12:55:54;;;;;;;13.23;9.57;;;11.10;67.40;;;;;;5067436;28;20036;-71
2021/12/21 12:58:22;;;;;;;17.35;11.85;;;11.00;66.50;;;;;;5051167;28;20033;-72
2021/12/21 13:01:04;;;;;;;12.13;10.63;;;11.10;66.70;;;;;;5066420;28;20047;-72
2021/12/21 13:03:37;;;;;;;12.70;11.13;;;11.10;66.60;;;;;;5057526;28;20134;-71
2021/12/21 13:06:13;;;;;;;12.13;9.70;;;11.10;66.60;;;;;;5067341;28;20025;-72
2021/12/21 13:08:42;;;;;;;16.02;11.20;;;11.10;66.60;;;;;;5058311;28;20140;-72
2021/12/21 13:11:09;;;;;;;11.77;10.40;;;11.10;66.60;;;;;;5047068;28;20025;-71
2021/12/21 13:13:39;;;;;;;13.02;11.52;;;11.10;66.50;;;;;;5047116;28;20052;-71
2021/12/21 13:16:27;;;;;;;14.38;10.95;;;11.10;66.40;;;;;;5046679;28;20504;-73
2021/12/21 13:18:55;;;;;;;17.10;12.00;;;11.10;66.30;;;;;;5059101;28;20541;-71
2021/12/21 13:21:29;;;;;;;12.98;10.93;;;11.10;66.40;;;;;;5066097;28;20043;-71
2021/12/21 13:24:09;;;;;;;13.75;11.20;;;11.10;66.30;;;;;;5058849;28;20028;-72
2021/12/21 13:26:40;;;;;;;14.55;10.60;;;11.10;66.20;;;;;;5046624;28;20068;-72
2021/12/21 13:29:14;;;;;;;13.25;11.85;;;11.20;66.40;;;;;;5046526;28;20334;-72
2021/12/21 13:31:41;;;;;;;15.32;11.80;;;11.20;66.30;;;;;;5046891;28;20037;-72
2021/12/21 13:34:07;;;;;;;15.90;12.32;;;11.20;66.20;;;;;;5037523;28;20086;-72
2021/12/21 13:36:45;;;;;;;13.75;11.98;;;11.20;66.10;;;;;;5066581;28;20035;-72
2021/12/21 13:39:24;;;;;;;13.93;11.82;;;11.20;66.00;;;;;;5066000;28;20395;-72
2021/12/21 13:41:54;;;;;;;15.38;12.57;;;11.20;65.90;;;;;;5066835;28;20045;-72
2021/12/21 13:44:42;;;;;;;14.48;13.07;;;11.20;66.00;;;;;;5065199;28;20380;-72
2021/12/21 13:47:30;;;;;;;18.20;13.35;;;11.10;65.70;;;;;;5048778;28;20066;-71
2021/12/21 13:50:19;;;;;;;15.10;12.85;;;11.10;65.70;;;;;;5047906;28;20028;-72
2021/12/21 13:52:52;;;;;;;17.45;13.43;;;11.10;65.80;;;;;;5048650;28;20335;-72
2021/12/21 13:55:38;;;;;;;15.52;12.82;;;11.10;65.90;;;;;;5065574;28;20533;-71
2021/12/21 13:58:07;;;;;;;14.63;12.20;;;11.10;65.90;;;;;;5048059;28;20064;-71
2021/12/21 14:00:38;;;;;;;14.43;12.85;;;11.00;65.80;;;;;;5047857;28;20047;-72
2021/12/21 14:03:16;;;;;;;15.00;13.48;;;11.00;65.80;;;;;;5065304;28;20476;-72
2021/12/21 14:05:45;;;;;;;16.15;13.05;;;11.00;65.80;;;;;;5066208;28;20052;-71
2021/12/21 14:08:13;;;;;;;15.50;13.30;;;10.90;65.60;;;;;;5064495;28;20029;-71
2021/12/21 14:10:41;;;;;;;15.35;13.60;;;10.90;65.70;;;;;;5046778;28;20469;-71
2021/12/21 14:13:08;;;;;;;18.20;13.48;;;10.90;65.90;;;;;;5064689;28;20032;-71
2021/12/21 14:15:39;;;;;;;18.33;14.48;;;10.90;65.80;;;;;;5065831;28;20028;-71
2021/12/21 14:18:32;;;;;;;18.73;14.15;;;10.80;65.60;;;;;;5048095;28;20043;-73